sensor_id;sensor_type;location;lat;lon;timestamp;P1;durP1;ratioP1;P2;durP2;ratioP2
71108;SDS011;59614;51.012;-1.648;2022-08-11T00:00:07;5.30;;;2.20;;
71108;SDS011;59614;51.012;-1.648;2022-08-11T00:02:35;5.95;;;2.35;;
71108;SDS011;59614;51.012;-1.648;2022-08-11T00:05:06;4.90;;;2.50;;
71108;SDS011;59614;51.012;-1.648;2022-08-11T00:07:40;3.60;;;2.15;;
71108;SDS011;59614;51.012;-1.648;2022-08-11T00:10:09;4.20;;;2.08;;
71108;SDS011;59614;51.012;-1.648;2022-08-11T00:12:58;5.45;;;2.30;;
71108;SDS011;59614;51.012;-1.648;2022-08-11T00:15:28;7.40;;;2.20;;
71108;SDS011;59614;51.012;-1.648;2022-08-11T00:18:03;9.18;;;2.08;;
71108;SDS011;59614;51.012;-1.648;2022-08-11T00:20:30;5.03;;;2.30;;
71108;SDS011;59614;51.012;-1.648;2022-08-11T00:23:01;6.25;;;2.10;;
71108;SDS011;59614;51.012;-1.648;2022-08-11T00:25:29;3.00;;;2.05;;
71108;SDS011;59614;51.012;-1.648;2022-08-11T00:28:01;3.17;;;1.98;;
71108;SDS011;59614;51.012;-1.648;2022-08-11T00:30:26;5.65;;;2.22;;
71108;SDS011;59614;51.012;-1.648;2022-08-11T00:33:03;7.53;;;2.20;;
71108;SDS011;59614;51.012;-1.648;2022-08-11T00:35:30;3.70;;;2.22;;
71108;SDS011;59614;51.012;-1.648;2022-08-11T00:37:57;3.67;;;2.17;;
71108;SDS011;59614;51.012;-1.648;2022-08-11T00:40:41;4.63;;;2.28;;
71108;SDS011;59614;51.012;-1.648;2022-08-11T00:48:41;3.38;;;2.03;;
71108;SDS011;59614;51.012;-1.648;2022-08-11T00:51:23;5.80;;;2.30;;
71108;SDS011;59614;51.012;-1.648;2022-08-11T00:57:00;3.17;;;2.00;;
71108;SDS011;59614;51.012;-1.648;2022-08-11T01:02:44;3.70;;;2.23;;
71108;SDS011;59614;51.012;-1.648;2022-08-11T01:14:06;6.77;;;2.90;;
71108;SDS011;59614;51.012;-1.648;2022-08-11T01:44:16;5.38;;;2.75;;
71108;SDS011;59614;51.012;-1.648;2022-08-11T01:49:42;8.15;;;2.75;;
71108;SDS011;59614;51.012;-1.648;2022-08-11T01:52:25;4.25;;;2.42;;
71108;SDS011;59614;51.012;-1.648;2022-08-11T01:55:11;5.72;;;2.50;;
71108;SDS011;59614;51.012;-1.648;2022-08-11T02:00:27;3.72;;;2.20;;
71108;SDS011;59614;51.012;-1.648;2022-08-11T02:03:17;5.82;;;2.47;;
71108;SDS011;59614;51.012;-1.648;2022-08-11T02:05:56;8.43;;;2.50;;
71108;SDS011;59614;51.012;-1.648;2022-08-11T02:08:34;5.43;;;2.35;;
71108;SDS011;59614;51.012;-1.648;2022-08-11T02:11:25;4.38;;;2.30;;
71108;SDS011;59614;51.012;-1.648;2022-08-11T02:14:19;5.45;;;2.90;;
71108;SDS011;59614;51.012;-1.648;2022-08-11T02:17:03;7.50;;;2.55;;
71108;SDS011;59614;51.012;-1.648;2022-08-11T02:23:03;4.55;;;2.63;;
71108;SDS011;59614;51.012;-1.648;2022-08-11T02:25:52;7.85;;;2.55;;
71108;SDS011;59614;51.012;-1.648;2022-08-11T02:28:24;6.32;;;2.65;;
71108;SDS011;59614;51.012;-1.648;2022-08-11T02:45:56;8.50;;;2.95;;
71108;SDS011;59614;51.012;-1.648;2022-08-11T02:48:52;6.70;;;2.70;;
71108;SDS011;59614;51.012;-1.648;2022-08-11T02:54:43;5.78;;;2.83;;
71108;SDS011;59614;51.012;-1.648;2022-08-11T03:47:53;9.30;;;4.03;;
71108;SDS011;59614;51.012;-1.648;2022-08-11T04:02:25;7.20;;;4.10;;
71108;SDS011;59614;51.012;-1.648;2022-08-11T04:40:11;9.38;;;4.65;;
71108;SDS011;59614;51.012;-1.648;2022-08-11T04:55:19;15.52;;;4.60;;
71108;SDS011;59614;51.012;-1.648;2022-08-11T05:05:14;10.25;;;4.85;;
71108;SDS011;59614;51.012;-1.648;2022-08-11T05:13:43;8.60;;;4.32;;
71108;SDS011;59614;51.012;-1.648;2022-08-11T05:16:34;8.30;;;4.32;;
71108;SDS011;59614;51.012;-1.648;2022-08-11T05:19:23;7.40;;;4.05;;
71108;SDS011;59614;51.012;-1.648;2022-08-11T05:22:09;12.43;;;5.00;;
71108;SDS011;59614;51.012;-1.648;2022-08-11T05:24:59;6.57;;;4.57;;
71108;SDS011;59614;51.012;-1.648;2022-08-11T05:28:08;7.00;;;4.07;;
71108;SDS011;59614;51.012;-1.648;2022-08-11T05:30:55;7.78;;;4.72;;
71108;SDS011;59614;51.012;-1.648;2022-08-11T05:33:44;13.38;;;5.53;;
71108;SDS011;59614;51.012;-1.648;2022-08-11T05:39:01;10.73;;;4.90;;
71108;SDS011;59614;51.012;-1.648;2022-08-11T05:41:51;7.47;;;3.70;;
71108;SDS011;59614;51.012;-1.648;2022-08-11T05:44:43;10.15;;;4.88;;
71108;SDS011;59614;51.012;-1.648;2022-08-11T05:47:28;10.75;;;4.80;;
71108;SDS011;59614;51.012;-1.648;2022-08-11T05:50:13;10.35;;;4.57;;
71108;SDS011;59614;51.012;-1.648;2022-08-11T05:55:45;5.13;;;3.95;;
71108;SDS011;59614;51.012;-1.648;2022-08-11T05:58:38;12.18;;;4.47;;
71108;SDS011;59614;51.012;-1.648;2022-08-11T06:01:05;7.30;;;3.55;;
71108;SDS011;59614;51.012;-1.648;2022-08-11T06:03:32;6.38;;;3.50;;
71108;SDS011;59614;51.012;-1.648;2022-08-11T06:06:23;13.60;;;4.35;;
71108;SDS011;59614;51.012;-1.648;2022-08-11T06:08:49;7.05;;;4.05;;
71108;SDS011;59614;51.012;-1.648;2022-08-11T06:11:20;6.50;;;3.70;;
71108;SDS011;59614;51.012;-1.648;2022-08-11T06:13:48;7.80;;;4.45;;
71108;SDS011;59614;51.012;-1.648;2022-08-11T06:16:14;8.82;;;3.80;;
71108;SDS011;59614;51.012;-1.648;2022-08-11T06:18:47;7.68;;;4.57;;
71108;SDS011;59614;51.012;-1.648;2022-08-11T06:21:13;8.15;;;4.50;;
71108;SDS011;59614;51.012;-1.648;2022-08-11T06:23:41;10.30;;;3.85;;
71108;SDS011;59614;51.012;-1.648;2022-08-11T06:26:08;9.95;;;4.47;;
71108;SDS011;59614;51.012;-1.648;2022-08-11T06:28:36;12.20;;;4.60;;
71108;SDS011;59614;51.012;-1.648;2022-08-11T06:31:21;9.85;;;4.60;;
71108;SDS011;59614;51.012;-1.648;2022-08-11T06:33:55;11.40;;;4.80;;
71108;SDS011;59614;51.012;-1.648;2022-08-11T06:36:30;10.77;;;4.45;;
71108;SDS011;59614;51.012;-1.648;2022-08-11T06:46:35;9.68;;;4.82;;
71108;SDS011;59614;51.012;-1.648;2022-08-11T06:49:10;9.43;;;3.90;;
71108;SDS011;59614;51.012;-1.648;2022-08-11T06:51:58;10.77;;;4.00;;
71108;SDS011;59614;51.012;-1.648;2022-08-11T06:54:26;8.13;;;3.83;;
71108;SDS011;59614;51.012;-1.648;2022-08-11T06:56:54;7.45;;;3.75;;
71108;SDS011;59614;51.012;-1.648;2022-08-11T06:59:39;8.70;;;4.13;;
71108;SDS011;59614;51.012;-1.648;2022-08-11T07:02:26;9.57;;;3.83;;
71108;SDS011;59614;51.012;-1.648;2022-08-11T07:05:37;8.15;;;4.20;;
71108;SDS011;59614;51.012;-1.648;2022-08-11T07:14:45;7.20;;;3.75;;
71108;SDS011;59614;51.012;-1.648;2022-08-11T07:17:37;8.38;;;3.78;;
71108;SDS011;59614;51.012;-1.648;2022-08-11T07:20:08;14.48;;;4.32;;
71108;SDS011;59614;51.012;-1.648;2022-08-11T07:22:55;9.57;;;3.80;;
71108;SDS011;59614;51.012;-1.648;2022-08-11T07:25:41;10.05;;;3.67;;
71108;SDS011;59614;51.012;-1.648;2022-08-11T07:28:30;9.52;;;3.80;;
71108;SDS011;59614;51.012;-1.648;2022-08-11T07:33:50;12.60;;;4.07;;
71108;SDS011;59614;51.012;-1.648;2022-08-11T07:36:19;5.97;;;3.45;;
71108;SDS011;59614;51.012;-1.648;2022-08-11T07:38:47;9.02;;;3.28;;
71108;SDS011;59614;51.012;-1.648;2022-08-11T07:41:17;7.72;;;3.80;;
71108;SDS011;59614;51.012;-1.648;2022-08-11T07:43:47;7.38;;;3.38;;
71108;SDS011;59614;51.012;-1.648;2022-08-11T07:46:15;9.18;;;3.50;;
71108;SDS011;59614;51.012;-1.648;2022-08-11T07:49:04;7.78;;;3.30;;
71108;SDS011;59614;51.012;-1.648;2022-08-11T07:51:52;8.85;;;3.42;;
71108;SDS011;59614;51.012;-1.648;2022-08-11T07:54:36;8.18;;;3.03;;
71108;SDS011;59614;51.012;-1.648;2022-08-11T07:57:04;7.40;;;3.13;;
71108;SDS011;59614;51.012;-1.648;2022-08-11T07:59:51;8.35;;;2.72;;
71108;SDS011;59614;51.012;-1.648;2022-08-11T08:02:36;6.53;;;2.80;;
71108;SDS011;59614;51.012;-1.648;2022-08-11T08:05:20;7.28;;;3.15;;
71108;SDS011;59614;51.012;-1.648;2022-08-11T08:08:06;8.00;;;2.85;;
71108;SDS011;59614;51.012;-1.648;2022-08-11T08:10:53;8.07;;;2.97;;
71108;SDS011;59614;51.012;-1.648;2022-08-11T08:13:40;9.50;;;3.05;;
71108;SDS011;59614;51.012;-1.648;2022-08-11T08:16:25;6.35;;;2.90;;
71108;SDS011;59614;51.012;-1.648;2022-08-11T08:19:13;9.13;;;2.90;;
71108;SDS011;59614;51.012;-1.648;2022-08-11T08:21:40;7.05;;;3.30;;
71108;SDS011;59614;51.012;-1.648;2022-08-11T08:24:07;6.97;;;3.08;;
71108;SDS011;59614;51.012;-1.648;2022-08-11T08:26:34;5.25;;;2.90;;
71108;SDS011;59614;51.012;-1.648;2022-08-11T08:29:19;8.20;;;3.00;;
71108;SDS011;59614;51.012;-1.648;2022-08-11T08:32:04;8.40;;;2.85;;
71108;SDS011;59614;51.012;-1.648;2022-08-11T08:34:30;7.10;;;3.00;;
71108;SDS011;59614;51.012;-1.648;2022-08-11T08:36:56;8.80;;;3.20;;
71108;SDS011;59614;51.012;-1.648;2022-08-11T08:39:22;7.53;;;3.20;;
71108;SDS011;59614;51.012;-1.648;2022-08-11T08:41:48;7.88;;;3.45;;
71108;SDS011;59614;51.012;-1.648;2022-08-11T08:44:18;8.75;;;3.08;;
71108;SDS011;59614;51.012;-1.648;2022-08-11T08:46:47;9.55;;;3.22;;
71108;SDS011;59614;51.012;-1.648;2022-08-11T08:49:17;5.97;;;2.75;;
71108;SDS011;59614;51.012;-1.648;2022-08-11T08:51:48;7.05;;;2.88;;
71108;SDS011;59614;51.012;-1.648;2022-08-11T08:54:22;9.13;;;3.22;;
71108;SDS011;59614;51.012;-1.648;2022-08-11T08:56:58;8.05;;;3.33;;
71108;SDS011;59614;51.012;-1.648;2022-08-11T08:59:29;7.38;;;2.80;;
71108;SDS011;59614;51.012;-1.648;2022-08-11T09:02:01;8.00;;;3.10;;
71108;SDS011;59614;51.012;-1.648;2022-08-11T09:04:29;9.70;;;3.38;;
71108;SDS011;59614;51.012;-1.648;2022-08-11T09:06:57;7.28;;;2.88;;
71108;SDS011;59614;51.012;-1.648;2022-08-11T09:09:25;9.45;;;3.17;;
71108;SDS011;59614;51.012;-1.648;2022-08-11T09:11:51;5.45;;;3.03;;
71108;SDS011;59614;51.012;-1.648;2022-08-11T09:14:19;7.10;;;2.67;;
71108;SDS011;59614;51.012;-1.648;2022-08-11T09:16:48;5.10;;;2.55;;
71108;SDS011;59614;51.012;-1.648;2022-08-11T09:19:16;8.15;;;3.20;;
71108;SDS011;59614;51.012;-1.648;2022-08-11T09:21:47;5.47;;;3.00;;
71108;SDS011;59614;51.012;-1.648;2022-08-11T09:24:37;5.47;;;2.80;;
71108;SDS011;59614;51.012;-1.648;2022-08-11T09:27:22;8.10;;;2.97;;
71108;SDS011;59614;51.012;-1.648;2022-08-11T09:29:49;9.30;;;2.80;;
71108;SDS011;59614;51.012;-1.648;2022-08-11T09:32:20;9.55;;;2.63;;
71108;SDS011;59614;51.012;-1.648;2022-08-11T09:34:48;11.30;;;2.90;;
71108;SDS011;59614;51.012;-1.648;2022-08-11T09:37:16;6.55;;;2.80;;
71108;SDS011;59614;51.012;-1.648;2022-08-11T09:40:01;7.63;;;2.80;;
71108;SDS011;59614;51.012;-1.648;2022-08-11T09:42:47;5.68;;;2.55;;
71108;SDS011;59614;51.012;-1.648;2022-08-11T09:45:32;8.77;;;2.88;;
71108;SDS011;59614;51.012;-1.648;2022-08-11T09:47:58;7.25;;;2.78;;
71108;SDS011;59614;51.012;-1.648;2022-08-11T09:50:29;9.25;;;2.92;;
71108;SDS011;59614;51.012;-1.648;2022-08-11T09:52:56;6.57;;;2.85;;
71108;SDS011;59614;51.012;-1.648;2022-08-11T09:55:23;6.88;;;2.78;;
71108;SDS011;59614;51.012;-1.648;2022-08-11T09:57:49;11.23;;;2.90;;
71108;SDS011;59614;51.012;-1.648;2022-08-11T10:00:35;8.73;;;3.15;;
71108;SDS011;59614;51.012;-1.648;2022-08-11T10:03:01;6.70;;;2.65;;
71108;SDS011;59614;51.012;-1.648;2022-08-11T10:05:31;7.35;;;2.70;;
71108;SDS011;59614;51.012;-1.648;2022-08-11T10:08:15;10.73;;;2.83;;
71108;SDS011;59614;51.012;-1.648;2022-08-11T10:10:43;8.13;;;2.85;;
71108;SDS011;59614;51.012;-1.648;2022-08-11T10:13:13;7.95;;;2.72;;
71108;SDS011;59614;51.012;-1.648;2022-08-11T10:15:42;7.05;;;2.90;;
71108;SDS011;59614;51.012;-1.648;2022-08-11T10:18:14;10.38;;;2.72;;
71108;SDS011;59614;51.012;-1.648;2022-08-11T10:23:49;6.57;;;2.80;;
71108;SDS011;59614;51.012;-1.648;2022-08-11T10:26:35;5.90;;;2.60;;
71108;SDS011;59614;51.012;-1.648;2022-08-11T10:29:32;9.70;;;2.95;;
71108;SDS011;59614;51.012;-1.648;2022-08-11T10:32:24;9.38;;;2.67;;
71108;SDS011;59614;51.012;-1.648;2022-08-11T10:35:10;9.35;;;2.90;;
71108;SDS011;59614;51.012;-1.648;2022-08-11T10:37:38;10.50;;;2.70;;
71108;SDS011;59614;51.012;-1.648;2022-08-11T10:40:06;9.48;;;2.88;;
71108;SDS011;59614;51.012;-1.648;2022-08-11T10:42:35;9.57;;;2.70;;
71108;SDS011;59614;51.012;-1.648;2022-08-11T10:45:20;5.93;;;2.97;;
71108;SDS011;59614;51.012;-1.648;2022-08-11T10:48:04;12.13;;;3.17;;
71108;SDS011;59614;51.012;-1.648;2022-08-11T10:50:31;6.75;;;2.78;;
71108;SDS011;59614;51.012;-1.648;2022-08-11T10:53:16;8.70;;;2.70;;
71108;SDS011;59614;51.012;-1.648;2022-08-11T10:56:01;6.18;;;2.60;;
71108;SDS011;59614;51.012;-1.648;2022-08-11T10:58:46;7.72;;;2.92;;
71108;SDS011;59614;51.012;-1.648;2022-08-11T11:01:31;11.73;;;3.22;;
71108;SDS011;59614;51.012;-1.648;2022-08-11T11:04:00;11.10;;;3.00;;
71108;SDS011;59614;51.012;-1.648;2022-08-11T11:09:16;8.57;;;3.28;;
71108;SDS011;59614;51.012;-1.648;2022-08-11T11:11:48;11.40;;;3.38;;
71108;SDS011;59614;51.012;-1.648;2022-08-11T11:14:35;11.93;;;2.90;;
71108;SDS011;59614;51.012;-1.648;2022-08-11T11:17:27;9.93;;;3.15;;
71108;SDS011;59614;51.012;-1.648;2022-08-11T11:20:16;6.25;;;2.92;;
71108;SDS011;59614;51.012;-1.648;2022-08-11T11:22:45;7.03;;;3.08;;
71108;SDS011;59614;51.012;-1.648;2022-08-11T11:25:20;6.43;;;3.10;;
71108;SDS011;59614;51.012;-1.648;2022-08-11T11:34:20;8.48;;;3.10;;
71108;SDS011;59614;51.012;-1.648;2022-08-11T11:37:06;7.93;;;3.40;;
71108;SDS011;59614;51.012;-1.648;2022-08-11T11:39:33;8.77;;;3.22;;
71108;SDS011;59614;51.012;-1.648;2022-08-11T11:42:02;10.85;;;3.25;;
71108;SDS011;59614;51.012;-1.648;2022-08-11T11:44:30;9.20;;;2.78;;
71108;SDS011;59614;51.012;-1.648;2022-08-11T11:46:56;5.13;;;3.15;;
71108;SDS011;59614;51.012;-1.648;2022-08-11T11:49:23;7.72;;;3.10;;
71108;SDS011;59614;51.012;-1.648;2022-08-11T11:51:54;8.63;;;3.00;;
71108;SDS011;59614;51.012;-1.648;2022-08-11T11:54:23;7.07;;;3.35;;
71108;SDS011;59614;51.012;-1.648;2022-08-11T11:56:55;12.65;;;3.33;;
71108;SDS011;59614;51.012;-1.648;2022-08-11T11:59:22;7.50;;;3.60;;
71108;SDS011;59614;51.012;-1.648;2022-08-11T12:02:09;9.75;;;3.50;;
71108;SDS011;59614;51.012;-1.648;2022-08-11T12:04:36;13.93;;;3.30;;
71108;SDS011;59614;51.012;-1.648;2022-08-11T12:07:05;7.80;;;3.30;;
71108;SDS011;59614;51.012;-1.648;2022-08-11T12:09:50;16.13;;;3.50;;
71108;SDS011;59614;51.012;-1.648;2022-08-11T12:12:18;8.63;;;2.90;;
71108;SDS011;59614;51.012;-1.648;2022-08-11T12:15:03;7.60;;;3.25;;
71108;SDS011;59614;51.012;-1.648;2022-08-11T12:17:30;7.85;;;3.30;;
71108;SDS011;59614;51.012;-1.648;2022-08-11T12:19:56;11.20;;;2.90;;
71108;SDS011;59614;51.012;-1.648;2022-08-11T12:22:22;7.53;;;3.23;;
71108;SDS011;59614;51.012;-1.648;2022-08-11T12:25:06;11.27;;;3.00;;
71108;SDS011;59614;51.012;-1.648;2022-08-11T12:27:54;6.25;;;2.85;;
71108;SDS011;59614;51.012;-1.648;2022-08-11T12:30:20;9.70;;;3.00;;
71108;SDS011;59614;51.012;-1.648;2022-08-11T12:32:46;7.60;;;3.20;;
71108;SDS011;59614;51.012;-1.648;2022-08-11T12:35:13;6.78;;;2.72;;
71108;SDS011;59614;51.012;-1.648;2022-08-11T12:37:44;8.82;;;3.30;;
71108;SDS011;59614;51.012;-1.648;2022-08-11T12:40:14;5.82;;;2.80;;
71108;SDS011;59614;51.012;-1.648;2022-08-11T12:43:02;7.80;;;2.80;;
71108;SDS011;59614;51.012;-1.648;2022-08-11T12:45:53;4.80;;;2.78;;
71108;SDS011;59614;51.012;-1.648;2022-08-11T12:48:22;11.88;;;2.80;;
71108;SDS011;59614;51.012;-1.648;2022-08-11T12:51:10;7.78;;;3.20;;
71108;SDS011;59614;51.012;-1.648;2022-08-11T12:54:45;6.00;;;3.13;;
71108;SDS011;59614;51.012;-1.648;2022-08-11T12:57:25;5.30;;;2.83;;
71108;SDS011;59614;51.012;-1.648;2022-08-11T13:00:13;7.47;;;2.67;;
71108;SDS011;59614;51.012;-1.648;2022-08-11T13:02:58;7.60;;;2.83;;
71108;SDS011;59614;51.012;-1.648;2022-08-11T13:05:43;7.28;;;3.08;;
71108;SDS011;59614;51.012;-1.648;2022-08-11T13:08:11;8.65;;;3.05;;
71108;SDS011;59614;51.012;-1.648;2022-08-11T13:10:42;11.45;;;3.40;;
71108;SDS011;59614;51.012;-1.648;2022-08-11T13:15:53;7.18;;;2.72;;
71108;SDS011;59614;51.012;-1.648;2022-08-11T13:18:20;8.98;;;2.97;;
71108;SDS011;59614;51.012;-1.648;2022-08-11T13:20:47;5.15;;;2.63;;
71108;SDS011;59614;51.012;-1.648;2022-08-11T13:23:16;6.30;;;3.00;;
71108;SDS011;59614;51.012;-1.648;2022-08-11T13:25:41;10.50;;;3.13;;
71108;SDS011;59614;51.012;-1.648;2022-08-11T13:28:08;8.20;;;2.92;;
71108;SDS011;59614;51.012;-1.648;2022-08-11T13:30:36;5.72;;;2.58;;
71108;SDS011;59614;51.012;-1.648;2022-08-11T13:33:21;11.32;;;3.28;;
71108;SDS011;59614;51.012;-1.648;2022-08-11T13:35:47;7.10;;;2.80;;
71108;SDS011;59614;51.012;-1.648;2022-08-11T13:38:16;11.30;;;2.78;;
71108;SDS011;59614;51.012;-1.648;2022-08-11T13:40:44;9.68;;;2.95;;
71108;SDS011;59614;51.012;-1.648;2022-08-11T13:45:37;5.13;;;2.80;;
71108;SDS011;59614;51.012;-1.648;2022-08-11T13:48:05;7.05;;;2.70;;
71108;SDS011;59614;51.012;-1.648;2022-08-11T13:50:33;7.88;;;2.80;;
71108;SDS011;59614;51.012;-1.648;2022-08-11T13:53:22;6.28;;;3.05;;
71108;SDS011;59614;51.012;-1.648;2022-08-11T13:55:49;10.35;;;3.00;;
71108;SDS011;59614;51.012;-1.648;2022-08-11T13:58:15;7.35;;;2.90;;
71108;SDS011;59614;51.012;-1.648;2022-08-11T14:00:43;8.97;;;3.07;;
71108;SDS011;59614;51.012;-1.648;2022-08-11T14:03:12;8.65;;;2.97;;
71108;SDS011;59614;51.012;-1.648;2022-08-11T14:08:08;6.55;;;2.90;;
71108;SDS011;59614;51.012;-1.648;2022-08-11T14:10:37;8.55;;;2.90;;
71108;SDS011;59614;51.012;-1.648;2022-08-11T14:13:11;5.03;;;2.60;;
71108;SDS011;59614;51.012;-1.648;2022-08-11T14:16:03;7.60;;;2.85;;
71108;SDS011;59614;51.012;-1.648;2022-08-11T14:18:35;6.00;;;2.75;;
71108;SDS011;59614;51.012;-1.648;2022-08-11T14:21:06;4.85;;;2.50;;
71108;SDS011;59614;51.012;-1.648;2022-08-11T14:23:55;4.32;;;2.63;;
71108;SDS011;59614;51.012;-1.648;2022-08-11T14:26:24;5.43;;;2.88;;
71108;SDS011;59614;51.012;-1.648;2022-08-11T14:31:22;8.02;;;3.00;;
71108;SDS011;59614;51.012;-1.648;2022-08-11T14:33:49;12.15;;;3.22;;
71108;SDS011;59614;51.012;-1.648;2022-08-11T14:36:17;5.63;;;3.10;;
71108;SDS011;59614;51.012;-1.648;2022-08-11T14:38:45;9.70;;;2.80;;
71108;SDS011;59614;51.012;-1.648;2022-08-11T14:41:12;4.95;;;2.55;;
71108;SDS011;59614;51.012;-1.648;2022-08-11T14:43:55;7.28;;;3.08;;
71108;SDS011;59614;51.012;-1.648;2022-08-11T14:46:40;7.18;;;2.95;;
71108;SDS011;59614;51.012;-1.648;2022-08-11T14:49:26;9.65;;;3.17;;
71108;SDS011;59614;51.012;-1.648;2022-08-11T14:51:53;6.93;;;3.00;;
71108;SDS011;59614;51.012;-1.648;2022-08-11T14:54:25;9.63;;;3.00;;
71108;SDS011;59614;51.012;-1.648;2022-08-11T14:57:12;4.28;;;2.50;;
71108;SDS011;59614;51.012;-1.648;2022-08-11T14:59:38;7.90;;;2.72;;
71108;SDS011;59614;51.012;-1.648;2022-08-11T15:02:04;7.63;;;2.97;;
71108;SDS011;59614;51.012;-1.648;2022-08-11T15:04:49;8.25;;;2.60;;
71108;SDS011;59614;51.012;-1.648;2022-08-11T15:09:41;10.20;;;2.88;;
71108;SDS011;59614;51.012;-1.648;2022-08-11T15:12:09;6.18;;;2.60;;
71108;SDS011;59614;51.012;-1.648;2022-08-11T15:14:43;9.48;;;2.90;;
71108;SDS011;59614;51.012;-1.648;2022-08-11T15:17:29;9.15;;;2.80;;
71108;SDS011;59614;51.012;-1.648;2022-08-11T15:19:58;6.28;;;2.75;;
71108;SDS011;59614;51.012;-1.648;2022-08-11T15:22:59;8.27;;;2.88;;
71108;SDS011;59614;51.012;-1.648;2022-08-11T15:25:44;6.32;;;2.53;;
71108;SDS011;59614;51.012;-1.648;2022-08-11T15:28:15;4.55;;;2.70;;
71108;SDS011;59614;51.012;-1.648;2022-08-11T15:31:01;5.10;;;2.65;;
71108;SDS011;59614;51.012;-1.648;2022-08-11T15:33:46;8.93;;;2.80;;
71108;SDS011;59614;51.012;-1.648;2022-08-11T15:36:35;6.95;;;2.63;;
71108;SDS011;59614;51.012;-1.648;2022-08-11T15:39:26;5.63;;;2.65;;
71108;SDS011;59614;51.012;-1.648;2022-08-11T15:41:58;8.33;;;2.73;;
71108;SDS011;59614;51.012;-1.648;2022-08-11T15:44:53;10.60;;;3.00;;
71108;SDS011;59614;51.012;-1.648;2022-08-11T15:48:29;9.23;;;3.13;;
71108;SDS011;59614;51.012;-1.648;2022-08-11T15:50:40;6.78;;;2.80;;
71108;SDS011;59614;51.012;-1.648;2022-08-11T15:55:49;7.03;;;2.80;;
71108;SDS011;59614;51.012;-1.648;2022-08-11T15:58:16;6.40;;;2.75;;
71108;SDS011;59614;51.012;-1.648;2022-08-11T16:01:02;10.80;;;2.75;;
71108;SDS011;59614;51.012;-1.648;2022-08-11T16:03:51;6.75;;;2.85;;
71108;SDS011;59614;51.012;-1.648;2022-08-11T16:06:37;6.05;;;2.50;;
71108;SDS011;59614;51.012;-1.648;2022-08-11T16:11:58;8.35;;;2.65;;
71108;SDS011;59614;51.012;-1.648;2022-08-11T16:14:26;9.65;;;2.80;;
71108;SDS011;59614;51.012;-1.648;2022-08-11T16:17:13;8.88;;;2.70;;
71108;SDS011;59614;51.012;-1.648;2022-08-11T16:19:42;6.60;;;2.80;;
71108;SDS011;59614;51.012;-1.648;2022-08-11T16:22:11;6.00;;;2.75;;
71108;SDS011;59614;51.012;-1.648;2022-08-11T16:24:40;10.65;;;3.13;;
71108;SDS011;59614;51.012;-1.648;2022-08-11T16:27:09;5.70;;;2.60;;
71108;SDS011;59614;51.012;-1.648;2022-08-11T16:32:02;7.55;;;2.70;;
71108;SDS011;59614;51.012;-1.648;2022-08-11T16:34:47;4.82;;;2.80;;
71108;SDS011;59614;51.012;-1.648;2022-08-11T16:37:35;11.25;;;2.80;;
71108;SDS011;59614;51.012;-1.648;2022-08-11T16:40:20;7.47;;;3.07;;
71108;SDS011;59614;51.012;-1.648;2022-08-11T16:42:47;7.90;;;2.90;;
71108;SDS011;59614;51.012;-1.648;2022-08-11T16:45:32;8.43;;;2.80;;
71108;SDS011;59614;51.012;-1.648;2022-08-11T16:48:18;6.55;;;2.80;;
71108;SDS011;59614;51.012;-1.648;2022-08-11T16:50:45;10.38;;;2.92;;
71108;SDS011;59614;51.012;-1.648;2022-08-11T16:53:12;7.18;;;3.00;;
71108;SDS011;59614;51.012;-1.648;2022-08-11T16:55:39;5.68;;;2.90;;
71108;SDS011;59614;51.012;-1.648;2022-08-11T16:58:05;9.38;;;3.17;;
71108;SDS011;59614;51.012;-1.648;2022-08-11T17:00:50;6.90;;;2.92;;
71108;SDS011;59614;51.012;-1.648;2022-08-11T17:03:17;6.72;;;3.05;;
71108;SDS011;59614;51.012;-1.648;2022-08-11T17:08:50;9.48;;;2.75;;
71108;SDS011;59614;51.012;-1.648;2022-08-11T17:11:45;8.00;;;3.10;;
71108;SDS011;59614;51.012;-1.648;2022-08-11T17:14:57;10.27;;;3.47;;
71108;SDS011;59614;51.012;-1.648;2022-08-11T17:17:32;9.05;;;3.00;;
71108;SDS011;59614;51.012;-1.648;2022-08-11T17:20:02;5.78;;;2.92;;
71108;SDS011;59614;51.012;-1.648;2022-08-11T17:22:33;13.20;;;3.15;;
71108;SDS011;59614;51.012;-1.648;2022-08-11T17:25:20;5.60;;;2.90;;
71108;SDS011;59614;51.012;-1.648;2022-08-11T17:27:49;7.32;;;3.03;;
71108;SDS011;59614;51.012;-1.648;2022-08-11T17:30:18;10.18;;;3.30;;
71108;SDS011;59614;51.012;-1.648;2022-08-11T17:32:46;8.07;;;2.95;;
71108;SDS011;59614;51.012;-1.648;2022-08-11T17:35:33;8.68;;;3.08;;
71108;SDS011;59614;51.012;-1.648;2022-08-11T17:38:09;9.32;;;3.00;;
71108;SDS011;59614;51.012;-1.648;2022-08-11T17:43:29;7.97;;;2.92;;
71108;SDS011;59614;51.012;-1.648;2022-08-11T17:46:15;8.90;;;3.05;;
71108;SDS011;59614;51.012;-1.648;2022-08-11T17:48:59;7.57;;;3.20;;
71108;SDS011;59614;51.012;-1.648;2022-08-11T17:51:26;8.90;;;3.22;;
71108;SDS011;59614;51.012;-1.648;2022-08-11T17:54:12;11.20;;;3.40;;
71108;SDS011;59614;51.012;-1.648;2022-08-11T17:56:57;9.77;;;3.75;;
71108;SDS011;59614;51.012;-1.648;2022-08-11T17:59:43;11.82;;;3.67;;
71108;SDS011;59614;51.012;-1.648;2022-08-11T18:02:36;12.95;;;3.53;;
71108;SDS011;59614;51.012;-1.648;2022-08-11T18:05:29;8.52;;;3.80;;
71108;SDS011;59614;51.012;-1.648;2022-08-11T18:07:58;9.15;;;3.60;;
71108;SDS011;59614;51.012;-1.648;2022-08-11T18:10:45;15.82;;;3.60;;
71108;SDS011;59614;51.012;-1.648;2022-08-11T18:13:32;5.95;;;3.35;;
71108;SDS011;59614;51.012;-1.648;2022-08-11T18:16:19;8.30;;;3.42;;
71108;SDS011;59614;51.012;-1.648;2022-08-11T18:19:07;11.13;;;3.75;;
71108;SDS011;59614;51.012;-1.648;2022-08-11T18:21:54;6.07;;;3.45;;
71108;SDS011;59614;51.012;-1.648;2022-08-11T18:24:45;8.45;;;3.38;;
71108;SDS011;59614;51.012;-1.648;2022-08-11T18:27:33;10.25;;;3.63;;
71108;SDS011;59614;51.012;-1.648;2022-08-11T18:30:21;12.30;;;3.25;;
71108;SDS011;59614;51.012;-1.648;2022-08-11T18:33:08;6.68;;;3.47;;
71108;SDS011;59614;51.012;-1.648;2022-08-11T18:35:57;10.63;;;3.55;;
71108;SDS011;59614;51.012;-1.648;2022-08-11T18:38:44;9.48;;;3.40;;
71108;SDS011;59614;51.012;-1.648;2022-08-11T18:41:31;8.68;;;3.40;;
71108;SDS011;59614;51.012;-1.648;2022-08-11T18:44:18;9.27;;;3.13;;
71108;SDS011;59614;51.012;-1.648;2022-08-11T18:49:52;7.82;;;3.20;;
71108;SDS011;59614;51.012;-1.648;2022-08-11T18:52:39;9.10;;;2.95;;
71108;SDS011;59614;51.012;-1.648;2022-08-11T18:55:25;5.57;;;3.03;;
71108;SDS011;59614;51.012;-1.648;2022-08-11T18:58:11;4.90;;;3.10;;
71108;SDS011;59614;51.012;-1.648;2022-08-11T19:00:59;6.07;;;3.10;;
71108;SDS011;59614;51.012;-1.648;2022-08-11T19:03:47;5.95;;;3.10;;
71108;SDS011;59614;51.012;-1.648;2022-08-11T19:06:33;7.30;;;3.15;;
71108;SDS011;59614;51.012;-1.648;2022-08-11T19:09:19;5.75;;;3.05;;
71108;SDS011;59614;51.012;-1.648;2022-08-11T19:12:04;5.85;;;2.85;;
71108;SDS011;59614;51.012;-1.648;2022-08-11T19:14:51;5.82;;;2.80;;
71108;SDS011;59614;51.012;-1.648;2022-08-11T19:17:40;6.72;;;3.20;;
71108;SDS011;59614;51.012;-1.648;2022-08-11T19:20:27;7.05;;;3.10;;
71108;SDS011;59614;51.012;-1.648;2022-08-11T19:23:14;6.68;;;3.03;;
71108;SDS011;59614;51.012;-1.648;2022-08-11T19:26:01;6.55;;;2.80;;
71108;SDS011;59614;51.012;-1.648;2022-08-11T19:28:47;9.27;;;3.00;;
71108;SDS011;59614;51.012;-1.648;2022-08-11T19:31:33;8.30;;;2.90;;
71108;SDS011;59614;51.012;-1.648;2022-08-11T19:34:19;4.70;;;3.05;;
71108;SDS011;59614;51.012;-1.648;2022-08-11T19:37:05;8.13;;;3.28;;
71108;SDS011;59614;51.012;-1.648;2022-08-11T19:39:50;6.03;;;3.10;;
71108;SDS011;59614;51.012;-1.648;2022-08-11T19:42:40;6.53;;;3.15;;
71108;SDS011;59614;51.012;-1.648;2022-08-11T19:45:27;6.97;;;3.30;;
71108;SDS011;59614;51.012;-1.648;2022-08-11T19:48:12;9.40;;;3.78;;
71108;SDS011;59614;51.012;-1.648;2022-08-11T19:50:56;7.07;;;3.28;;
71108;SDS011;59614;51.012;-1.648;2022-08-11T19:53:41;6.93;;;3.80;;
71108;SDS011;59614;51.012;-1.648;2022-08-11T19:56:26;9.45;;;3.40;;